Time;durP1;ratioP1;P1;durP2;ratioP2;P2;SDS_P1;SDS_P2;PMS_P1;PMS_P2;Temp;Humidity;BMP_temperature;BMP_pressure;BME280_temperature;BME280_humidity;BME280_pressure;Samples;Min_cycle;Max_cycle;Signal;HPM_P1;HPM_P2
2023/09/21 00:01:19;;;;;;;0.90;0.90;;;;;;;20.38;55.47;100192.00;5035768;27;97835;-54
2023/09/21 00:03:45;;;;;;;0.80;0.80;;;;;;;20.35;55.59;100193.19;5036072;27;96793;-54
2023/09/21 00:06:13;;;;;;;1.87;1.10;;;;;;;20.28;55.60;100182.78;5036522;27;97144;-54
2023/09/21 00:08:38;;;;;;;2.40;1.47;;;;;;;20.25;55.75;100181.13;5033871;27;97551;-55
2023/09/21 00:11:04;;;;;;;1.40;1.00;;;;;;;20.21;55.67;100180.81;5033895;27;97331;-54
2023/09/21 00:13:31;;;;;;;2.40;1.10;;;;;;;20.17;55.58;100183.97;5033233;27;97124;-55
2023/09/21 00:15:59;;;;;;;1.40;0.90;;;;;;;20.11;55.64;100182.72;5036360;27;97172;-54
2023/09/21 00:18:26;;;;;;;1.00;0.87;;;;;;;20.06;55.76;100178.84;5039526;27;96944;-54
2023/09/21 00:20:52;;;;;;;1.30;1.20;;;;;;;20.02;55.71;100177.75;5034951;27;97351;-54
2023/09/21 00:23:27;;;;;;;1.50;1.23;;;;;;;19.97;56.37;100173.13;5034531;27;96989;-55
2023/09/21 00:25:57;;;;;;;1.13;1.03;;;;;;;19.92;55.93;100168.53;5035106;27;99407;-55
2023/09/21 00:28:23;;;;;;;1.10;1.00;;;;;;;19.88;56.14;100168.16;5034498;27;96989;-55
2023/09/21 00:30:52;;;;;;;0.90;0.90;;;;;;;19.87;55.93;100166.69;5036193;27;97223;-55
2023/09/21 00:33:18;;;;;;;1.43;1.33;;;;;;;19.83;56.10;100163.56;5032863;27;97176;-54
2023/09/21 00:35:44;;;;;;;1.13;1.03;;;;;;;19.80;56.10;100161.91;5033722;27;97076;-54
2023/09/21 00:38:10;;;;;;;1.17;1.10;;;;;;;19.76;56.06;100158.78;5035361;27;97086;-54
2023/09/21 00:40:40;;;;;;;2.23;1.10;;;;;;;19.73;56.19;100157.84;5035135;27;96662;-54
2023/09/21 00:43:06;;;;;;;1.70;1.03;;;;;;;19.71;56.27;100154.13;5034249;27;97833;-54
2023/09/21 00:45:36;;;;;;;1.10;1.00;;;;;;;19.68;56.38;100144.13;5039909;27;97008;-54
2023/09/21 00:48:04;;;;;;;1.53;1.10;;;;;;;19.66;56.44;100143.97;5032255;27;96904;-54
2023/09/21 00:50:30;;;;;;;1.40;1.30;;;;;;;19.66;56.51;100143.97;5035099;27;97386;-54
2023/09/21 00:52:56;;;;;;;1.27;1.07;;;;;;;19.64;56.50;100144.50;5034310;27;97160;-56
2023/09/21 00:55:24;;;;;;;1.87;1.43;;;;;;;19.63;56.64;100142.28;5032304;27;97001;-55
2023/09/21 00:57:53;;;;;;;2.63;1.10;;;;;;;19.61;56.72;100137.28;5035902;27;97053;-54
2023/09/21 01:00:19;;;;;;;1.10;0.87;;;;;;;19.58;56.74;100129.28;5037082;27;97650;-54
2023/09/21 01:02:47;;;;;;;1.10;0.90;;;;;;;19.56;56.88;100132.66;5033438;27;96884;-54
2023/09/21 01:05:13;;;;;;;1.07;1.00;;;;;;;19.55;56.74;100136.75;5036533;27;97006;-55
2023/09/21 01:07:39;;;;;;;2.50;1.00;;;;;;;19.55;56.71;100127.66;5033132;27;97102;-55
2023/09/21 01:10:07;;;;;;;1.20;1.10;;;;;;;19.52;56.70;100120.41;5033466;27;97028;-54
2023/09/21 01:12:35;;;;;;;1.30;1.20;;;;;;;19.49;56.70;100133.44;5035601;27;97101;-54
2023/09/21 01:15:10;;;;;;;1.60;1.50;;;;;;;19.49;57.04;100135.47;5032755;27;96730;-55
2023/09/21 01:17:39;;;;;;;2.80;0.73;;;;;;;19.48;56.70;100131.22;5033410;27;97109;-55
2023/09/21 01:23:00;;;;;;;1.03;0.93;;;;;;;19.39;57.37;100116.59;5037051;27;97430;-54
2023/09/21 01:25:27;;;;;;;1.10;0.97;;;;;;;19.37;57.07;100118.44;5035246;27;96652;-54
2023/09/21 01:27:52;;;;;;;1.23;1.00;;;;;;;19.36;57.14;100126.06;5033131;27;97254;-54
2023/09/21 01:30:18;;;;;;;1.23;1.13;;;;;;;19.35;57.16;100123.88;5034759;27;96920;-54
2023/09/21 01:32:44;;;;;;;1.20;1.10;;;;;;;19.37;57.17;100118.44;5032447;27;97153;-54
2023/09/21 01:35:09;;;;;;;2.93;1.30;;;;;;;19.35;57.28;100118.28;5034181;27;97313;-54
2023/09/21 01:37:35;;;;;;;1.13;1.00;;;;;;;19.35;57.14;100119.00;5040084;27;97337;-54
2023/09/21 01:40:02;;;;;;;1.10;0.93;;;;;;;19.34;57.22;100113.97;5035569;27;97302;-54
2023/09/21 01:42:29;;;;;;;2.50;1.20;;;;;;;19.35;57.31;100109.91;5036696;27;97263;-54
2023/09/21 01:44:54;;;;;;;1.23;1.13;;;;;;;19.35;57.25;100110.63;5034193;27;97091;-54
2023/09/21 01:47:20;;;;;;;1.30;1.20;;;;;;;19.35;57.19;100099.47;5033188;27;96918;-54
2023/09/21 01:49:45;;;;;;;1.70;1.00;;;;;;;19.35;57.23;100096.69;5034863;27;97319;-55
2023/09/21 01:52:10;;;;;;;2.00;1.60;;;;;;;19.35;57.40;100102.25;5033821;27;110187;-54
2023/09/21 01:54:36;;;;;;;2.10;1.07;;;;;;;19.34;57.27;100089.63;5035552;27;97164;-54
2023/09/21 01:57:05;;;;;;;2.13;1.30;;;;;;;19.34;57.35;100095.22;5033702;27;96921;-54
2023/09/21 01:59:31;;;;;;;1.50;1.03;;;;;;;19.33;57.30;100095.75;5037824;27;96960;-54
2023/09/21 02:01:56;;;;;;;1.53;1.20;;;;;;;19.32;57.39;100095.03;5038078;27;97086;-54
2023/09/21 02:04:22;;;;;;;1.10;0.97;;;;;;;19.30;57.09;100088.53;5037444;27;97231;-55
2023/09/21 02:06:47;;;;;;;0.93;0.83;;;;;;;19.24;57.49;100085.94;5037239;27;97875;-54
2023/09/21 02:09:15;;;;;;;1.57;1.43;;;;;;;19.21;57.35;100078.72;5036474;27;96629;-55
2023/09/21 02:11:40;;;;;;;1.20;1.10;;;;;;;19.18;57.48;100079.84;5039374;27;97026;-54
2023/09/21 02:14:06;;;;;;;1.30;1.20;;;;;;;19.14;57.45;100064.81;5037739;27;97242;-54
2023/09/21 02:16:31;;;;;;;1.43;1.23;;;;;;;19.11;57.18;100063.88;5038283;27;97105;-54
2023/09/21 02:18:56;;;;;;;1.53;1.23;;;;;;;19.08;57.46;100056.66;5038624;27;97321;-54
2023/09/21 02:21:22;;;;;;;1.60;1.13;;;;;;;19.07;57.48;100060.75;5035138;27;97042;-54
2023/09/21 02:23:47;;;;;;;1.40;1.30;;;;;;;19.02;57.49;100047.78;5037630;27;97045;-54
2023/09/21 02:26:14;;;;;;;1.10;1.00;;;;;;;18.99;57.43;100048.91;5037484;27;96787;-54
2023/09/21 02:28:39;;;;;;;1.03;1.03;;;;;;;18.99;57.62;100051.69;5034270;27;97616;-54
2023/09/21 02:31:07;;;;;;;5.07;1.20;;;;;;;19.00;57.64;100052.44;5037910;27;96837;-54
2023/09/21 02:33:34;;;;;;;0.97;0.97;;;;;;;18.96;57.67;100036.09;5037540;27;96684;-54
2023/09/21 02:35:59;;;;;;;1.10;1.10;;;;;;;18.95;57.73;100039.44;5036961;27;96840;-54
2023/09/21 02:38:26;;;;;;;1.80;1.70;;;;;;;18.95;57.42;100031.09;5037732;27;97325;-54
2023/09/21 02:40:52;;;;;;;2.70;1.00;;;;;;;18.94;57.60;100030.34;5037112;27;97176;-54
2023/09/21 02:43:18;;;;;;;1.80;1.40;;;;;;;18.93;57.73;100033.69;5037121;27;96934;-54
2023/09/21 02:45:44;;;;;;;2.70;1.00;;;;;;;18.90;57.79;100030.00;5036544;27;97238;-54
2023/09/21 02:48:10;;;;;;;1.30;1.20;;;;;;;18.88;57.72;100020.69;5035642;27;98698;-54
2023/09/21 02:50:35;;;;;;;1.60;1.40;;;;;;;18.85;57.86;100021.84;5035741;27;109905;-54
2023/09/21 02:53:10;;;;;;;1.77;1.30;;;;;;;18.84;57.93;100025.94;5038129;27;96791;-54
2023/09/21 02:55:37;;;;;;;1.27;1.10;;;;;;;18.84;57.99;100023.16;5036471;27;96822;-54
2023/09/21 02:58:09;;;;;;;1.23;0.97;;;;;;;18.83;57.90;100025.19;5037897;27;100205;-54
2023/09/21 03:00:38;;;;;;;1.03;1.03;;;;;;;18.81;57.76;100027.78;5038295;27;97169;-55
2023/09/21 03:03:05;;;;;;;1.30;1.17;;;;;;;18.80;57.83;100025.59;5036040;27;97314;-54
2023/09/21 03:05:33;;;;;;;2.60;1.20;;;;;;;18.77;57.88;100021.88;5034304;27;96938;-54
2023/09/21 03:07:59;;;;;;;1.10;1.00;;;;;;;18.75;58.15;100024.50;5036512;27;97363;-54
2023/09/21 03:10:27;;;;;;;1.43;1.20;;;;;;;18.73;58.01;100021.53;5034171;27;97147;-55
2023/09/21 03:12:53;;;;;;;1.03;0.97;;;;;;;18.73;57.99;100015.94;5035851;27;96617;-54
2023/09/21 03:15:22;;;;;;;1.23;1.13;;;;;;;18.71;58.05;100010.22;5035822;27;97568;-55
2023/09/21 03:17:52;;;;;;;1.97;1.40;;;;;;;18.70;58.15;100015.03;5036463;27;97069;-54
2023/09/21 03:22:54;;;;;;;1.03;0.93;;;;;;;18.70;58.07;100008.72;5031354;27;96928;-54
2023/09/21 03:25:25;;;;;;;1.13;1.03;;;;;;;18.69;57.99;100010.78;5034730;27;96585;-54
2023/09/21 03:27:52;;;;;;;1.00;0.90;;;;;;;18.68;58.12;100003.72;5034463;27;97343;-54
2023/09/21 03:30:18;;;;;;;1.50;1.07;;;;;;;18.67;57.90;100004.28;5038476;27;97193;-54
2023/09/21 03:32:43;;;;;;;1.30;1.20;;;;;;;18.61;58.18;100000.94;5036560;27;97086;-54
2023/09/21 03:35:11;;;;;;;1.10;1.00;;;;;;;18.59;58.11;99995.19;5037913;27;96986;-54
2023/09/21 03:37:38;;;;;;;1.27;1.17;;;;;;;18.58;58.05;99991.69;5040443;27;97114;-54
2023/09/21 03:40:06;;;;;;;2.67;1.60;;;;;;;18.55;57.95;99997.63;5034342;27;97711;-54
2023/09/21 03:42:32;;;;;;;1.30;1.20;;;;;;;18.50;58.13;99995.81;5033782;27;96758;-54
2023/09/21 03:44:58;;;;;;;2.33;1.53;;;;;;;18.49;58.28;99986.72;5034358;27;96768;-54
2023/09/21 03:47:23;;;;;;;1.70;1.47;;;;;;;18.45;58.34;99993.97;5038980;27;96661;-55
2023/09/21 03:49:49;;;;;;;1.77;1.30;;;;;;;18.43;58.32;99990.97;5037476;27;97292;-54
2023/09/21 03:52:16;;;;;;;2.30;1.30;;;;;;;18.39;58.32;99994.13;5030617;27;97102;-54
2023/09/21 03:54:42;;;;;;;2.20;1.10;;;;;;;18.37;58.37;99996.03;5037211;27;97241;-54
2023/09/21 03:57:11;;;;;;;2.47;1.13;;;;;;;18.35;58.31;99981.88;5034766;27;96813;-55
2023/09/21 03:59:37;;;;;;;1.40;1.10;;;;;;;18.31;58.54;99971.16;5038630;27;97125;-54
2023/09/21 04:02:03;;;;;;;4.73;1.00;;;;;;;18.30;58.69;99974.50;5036073;27;97953;-54
2023/09/21 04:04:29;;;;;;;1.37;1.27;;;;;;;18.27;58.49;99981.19;5037096;27;97012;-54
2023/09/21 04:06:56;;;;;;;1.17;1.07;;;;;;;18.26;58.65;99972.09;5034430;27;97692;-54
2023/09/21 04:09:22;;;;;;;1.50;1.10;;;;;;;18.25;58.52;99975.44;5036567;27;97445;-54
2023/09/21 04:11:47;;;;;;;1.47;1.37;;;;;;;18.23;58.68;99970.44;5034593;27;96748;-54
2023/09/21 04:14:13;;;;;;;1.40;1.30;;;;;;;18.22;58.51;99970.97;5035141;27;96830;-54
2023/09/21 04:16:38;;;;;;;1.40;1.30;;;;;;;18.21;58.36;99963.94;5035286;27;97350;-54
2023/09/21 04:19:05;;;;;;;1.43;1.23;;;;;;;18.19;58.53;99969.34;5035489;27;97099;-54
2023/09/21 04:21:31;;;;;;;1.57;1.20;;;;;;;18.17;58.75;99950.41;5036459;27;96819;-54
2023/09/21 04:23:57;;;;;;;1.23;1.10;;;;;;;18.16;58.72;99968.41;5034276;27;96836;-55
2023/09/21 04:26:22;;;;;;;1.50;1.03;;;;;;;18.14;58.78;99962.66;5034429;27;97793;-54
2023/09/21 04:28:49;;;;;;;1.60;1.50;;;;;;;18.15;58.73;99955.06;5035790;27;96903;-54
2023/09/21 04:31:15;;;;;;;1.13;1.03;;;;;;;18.14;58.71;99957.09;5033819;27;97278;-54
2023/09/21 04:33:40;;;;;;;1.57;1.47;;;;;;;18.12;58.80;99962.50;5035929;27;96966;-54
2023/09/21 04:36:07;;;;;;;1.40;1.30;;;;;;;18.12;58.70;99961.75;5033414;27;97102;-54
2023/09/21 04:38:32;;;;;;;2.60;1.37;;;;;;;18.11;58.79;99961.00;5034290;27;97741;-54
2023/09/21 04:40:58;;;;;;;2.87;1.60;;;;;;;18.11;58.84;99961.00;5033519;27;96983;-54
2023/09/21 04:43:23;;;;;;;1.93;1.43;;;;;;;18.10;58.96;99956.75;5035240;27;97193;-54
2023/09/21 04:45:49;;;;;;;2.20;1.47;;;;;;;18.08;58.77;99958.59;5033992;27;97229;-54
2023/09/21 04:48:15;;;;;;;1.43;1.33;;;;;;;18.03;58.81;99949.16;5037609;27;96927;-55
2023/09/21 04:50:42;;;;;;;2.40;1.10;;;;;;;18.02;59.00;99946.94;5035392;27;96803;-54
2023/09/21 04:53:08;;;;;;;1.23;1.13;;;;;;;18.00;58.95;99946.75;5033715;27;96951;-54
2023/09/21 04:55:36;;;;;;;1.17;1.07;;;;;;;17.96;58.98;99944.34;5036037;27;104319;-54
2023/09/21 04:58:01;;;;;;;1.33;1.23;;;;;;;17.95;59.08;99948.44;5034510;27;96626;-54
2023/09/21 05:00:27;;;;;;;1.00;1.00;;;;;;;17.93;59.15;99948.25;5037229;27;96586;-54
2023/09/21 05:02:52;;;;;;;3.70;1.97;;;;;;;17.93;59.04;99945.47;5034038;27;97132;-54
2023/09/21 05:05:18;;;;;;;1.40;1.30;;;;;;;17.91;59.19;99946.03;5034154;27;97287;-54
2023/09/21 05:07:43;;;;;;;1.70;1.27;;;;;;;17.90;59.16;99950.13;5033245;27;97212;-54
2023/09/21 05:10:12;;;;;;;1.30;1.20;;;;;;;17.91;59.25;99945.28;5034688;27;97021;-54
2023/09/21 05:12:38;;;;;;;6.10;1.80;;;;;;;17.89;59.21;99954.19;5034095;27;97212;-54
2023/09/21 05:15:06;;;;;;;1.33;1.23;;;;;;;17.89;59.15;99945.84;5035310;27;97132;-54
2023/09/21 05:17:32;;;;;;;1.40;1.30;;;;;;;17.87;59.19;99931.75;5035447;27;97171;-53
2023/09/21 05:19:57;;;;;;;1.40;1.30;;;;;;;17.87;59.41;99937.31;5033560;27;97158;-54
2023/09/21 05:22:23;;;;;;;2.60;1.50;;;;;;;17.86;59.49;99938.63;5035576;27;97387;-53
2023/09/21 05:24:49;;;;;;;2.50;1.50;;;;;;;17.85;59.51;99934.34;5034220;27;108143;-54
2023/09/21 05:27:14;;;;;;;4.30;1.53;;;;;;;17.86;59.38;99938.63;5031452;27;97069;-54
2023/09/21 05:29:40;;;;;;;1.60;1.50;;;;;;;17.87;59.47;99940.09;5032783;27;96989;-54
2023/09/21 05:32:06;;;;;;;2.40;1.20;;;;;;;17.88;59.46;99936.03;5035365;27;96757;-54
2023/09/21 05:34:32;;;;;;;2.37;1.60;;;;;;;17.89;59.62;99939.53;5036179;27;96770;-54
2023/09/21 05:36:57;;;;;;;1.60;1.50;;;;;;;17.90;59.51;99927.84;5038572;27;96728;-54
2023/09/21 05:39:23;;;;;;;1.83;1.73;;;;;;;17.91;59.57;99934.16;5040338;27;97080;-54
2023/09/21 05:41:51;;;;;;;1.60;1.40;;;;;;;17.92;59.74;99933.59;5037960;27;96911;-54
2023/09/21 05:44:24;;;;;;;1.60;1.50;;;;;;;17.95;59.59;99932.47;5036107;27;97209;-54
2023/09/21 05:46:50;;;;;;;1.70;1.27;;;;;;;17.98;59.64;99936.16;5037976;27;97270;-54
2023/09/21 05:49:24;;;;;;;2.40;1.50;;;;;;;18.01;59.66;99929.50;5037969;27;97153;-54
2023/09/21 05:51:52;;;;;;;3.00;1.60;;;;;;;18.05;59.68;99929.09;5036647;27;97124;-54
2023/09/21 05:54:23;;;;;;;2.30;1.70;;;;;;;18.07;59.63;99926.50;5037846;27;97058;-54
2023/09/21 05:56:53;;;;;;;1.70;1.60;;;;;;;18.08;59.72;99928.72;5036323;27;97682;-54
2023/09/21 05:59:19;;;;;;;1.50;1.40;;;;;;;18.11;59.63;99924.09;5042034;27;97179;-54
2023/09/21 06:01:45;;;;;;;1.60;1.30;;;;;;;18.14;59.55;99925.72;5037995;27;97117;-54
2023/09/21 06:04:12;;;;;;;1.33;1.23;;;;;;;18.18;59.83;99926.09;5039332;27;97739;-54
2023/09/21 06:06:40;;;;;;;1.80;1.50;;;;;;;18.20;59.77;99926.25;5037708;27;97288;-54
2023/09/21 06:09:08;;;;;;;8.97;1.67;;;;;;;18.22;59.61;99927.19;5035886;27;96971;-54
2023/09/21 06:11:33;;;;;;;2.00;1.50;;;;;;;18.25;59.56;99922.53;5037821;27;97341;-54
2023/09/21 06:13:59;;;;;;;1.60;1.50;;;;;;;18.27;59.73;99922.72;5037394;27;109781;-54
2023/09/21 06:16:24;;;;;;;1.70;1.60;;;;;;;18.32;59.69;99921.78;5040196;27;96318;-54
2023/09/21 06:18:49;;;;;;;1.60;1.27;;;;;;;18.36;59.64;99917.28;5036990;27;97307;-53
2023/09/21 06:21:16;;;;;;;2.63;1.70;;;;;;;18.39;59.62;99921.00;5035879;27;96926;-54
2023/09/21 06:23:44;;;;;;;2.00;1.33;;;;;;;18.45;59.75;99918.78;5035650;27;97168;-54
2023/09/21 06:26:15;;;;;;;1.57;1.30;;;;;;;18.51;59.84;99919.28;5037552;27;96761;-54
2023/09/21 06:28:43;;;;;;;2.30;1.23;;;;;;;18.57;59.67;99917.03;5039526;27;97038;-54
2023/09/21 06:31:13;;;;;;;1.80;1.60;;;;;;;18.63;59.76;99915.50;5036817;27;97377;-54
2023/09/21 06:33:41;;;;;;;2.13;1.40;;;;;;;18.70;59.51;99917.50;5040871;27;98770;-54
2023/09/21 06:36:15;;;;;;;2.00;1.70;;;;;;;18.78;59.59;99917.47;5042910;27;97225;-54
2023/09/21 06:38:42;;;;;;;2.60;1.57;;;;;;;18.88;59.53;99914.78;5037822;27;96837;-54
2023/09/21 06:41:08;;;;;;;2.13;1.57;;;;;;;18.95;59.25;99908.44;5035671;27;97837;-54
2023/09/21 06:43:33;;;;;;;1.97;1.50;;;;;;;19.03;59.20;99904.28;5035605;27;98512;-54
2023/09/21 06:45:59;;;;;;;1.10;1.10;;;;;;;19.11;59.18;99902.16;5033223;27;97085;-56
2023/09/21 06:48:25;;;;;;;1.57;1.20;;;;;;;19.20;58.94;99901.53;5033500;27;97065;-54
2023/09/21 06:50:50;;;;;;;2.20;2.00;;;;;;;19.30;58.90;99894.03;5036199;27;96782;-54
2023/09/21 06:53:17;;;;;;;1.50;1.40;;;;;;;19.39;58.67;99895.47;5034990;27;96930;-54
2023/09/21 06:55:42;;;;;;;1.63;1.53;;;;;;;19.47;58.68;99895.38;5037509;27;97142;-54
2023/09/21 06:58:08;;;;;;;1.53;1.43;;;;;;;19.56;58.37;99891.94;5033106;27;97223;-54
2023/09/21 07:00:37;;;;;;;1.73;1.63;;;;;;;19.66;58.54;99890.72;5040353;27;97298;-54
2023/09/21 07:03:03;;;;;;;5.40;1.60;;;;;;;19.72;58.45;99887.69;5033112;27;98018;-54
2023/09/21 07:05:28;;;;;;;1.83;1.63;;;;;;;19.79;58.24;99878.50;5034002;27;97496;-54
2023/09/21 07:07:54;;;;;;;3.37;1.70;;;;;;;19.86;58.14;99888.81;5035965;27;96723;-54
2023/09/21 07:10:19;;;;;;;3.10;1.50;;;;;;;19.93;58.28;99885.22;5034169;27;97170;-54
2023/09/21 07:12:45;;;;;;;2.10;1.40;;;;;;;20.00;57.99;99878.81;5033064;27;96723;-54
2023/09/21 07:15:10;;;;;;;1.30;1.20;;;;;;;20.07;58.06;99875.19;5035528;27;97292;-54
2023/09/21 07:17:36;;;;;;;1.90;1.70;;;;;;;20.17;58.09;99876.72;5035631;27;96653;-54
2023/09/21 07:20:06;;;;;;;2.80;1.50;;;;;;;20.27;58.00;99879.59;5036090;27;96944;-54
2023/09/21 07:22:32;;;;;;;1.63;1.47;;;;;;;20.33;57.88;99882.88;5034862;27;97806;-54
2023/09/21 07:24:58;;;;;;;1.97;1.60;;;;;;;20.39;57.75;99880.56;5036942;27;97267;-54
2023/09/21 07:27:24;;;;;;;2.40;1.67;;;;;;;20.46;57.77;99882.53;5035139;27;96976;-55
2023/09/21 07:29:52;;;;;;;2.53;1.27;;;;;;;20.55;57.77;99876.22;5037377;27;97564;-54
2023/09/21 07:32:17;;;;;;;3.93;1.77;;;;;;;20.66;57.62;99877.78;5032664;27;97756;-55
2023/09/21 07:34:42;;;;;;;1.37;1.27;;;;;;;20.73;57.43;99883.22;5036083;27;97373;-54
2023/09/21 07:37:12;;;;;;;1.33;1.23;;;;;;;20.82;57.42;99885.34;5036235;27;97007;-54
2023/09/21 07:39:38;;;;;;;1.73;1.60;;;;;;;20.92;57.44;99886.09;5037136;27;96682;-54
2023/09/21 07:42:04;;;;;;;2.80;1.27;;;;;;;21.01;57.43;99879.09;5036121;27;97947;-54
2023/09/21 07:44:30;;;;;;;1.40;1.30;;;;;;;21.11;57.29;99879.13;5035096;27;98419;-54
2023/09/21 07:46:57;;;;;;;1.50;1.40;;;;;;;21.21;57.23;99866.66;5035384;27;97169;-55
2023/09/21 07:49:25;;;;;;;2.17;1.53;;;;;;;21.29;57.17;99863.72;5036219;27;97055;-54
2023/09/21 07:51:50;;;;;;;1.40;1.30;;;;;;;21.38;57.10;99865.81;5035681;27;97338;-54
2023/09/21 07:54:16;;;;;;;1.73;1.50;;;;;;;21.46;56.99;99861.56;5038954;27;97042;-54
2023/09/21 07:56:42;;;;;;;1.47;1.37;;;;;;;21.55;56.86;99852.44;5034943;27;97070;-54
2023/09/21 07:59:09;;;;;;;2.07;1.47;;;;;;;21.64;56.82;99862.16;5034680;27;97171;-54
2023/09/21 08:01:35;;;;;;;2.33;2.00;;;;;;;21.75;56.72;99852.44;5035932;27;97014;-54
2023/09/21 08:04:01;;;;;;;1.33;1.23;;;;;;;21.85;56.65;99853.91;5036695;27;96635;-55
2023/09/21 08:06:28;;;;;;;1.53;1.43;;;;;;;21.94;56.46;99850.38;5038304;27;97169;-54
2023/09/21 08:08:54;;;;;;;1.87;1.20;;;;;;;22.04;56.38;99847.59;5037375;27;97242;-54
2023/09/21 08:11:21;;;;;;;1.50;1.40;;;;;;;22.14;56.19;99851.84;5033571;27;97350;-54
2023/09/21 08:13:46;;;;;;;1.70;1.60;;;;;;;22.25;56.11;99837.22;5035237;27;97079;-55
2023/09/21 08:16:13;;;;;;;1.77;1.60;;;;;;;22.36;55.82;99839.41;5038252;27;97071;-54
2023/09/21 08:18:39;;;;;;;1.83;1.53;;;;;;;22.45;55.64;99842.75;5033774;27;96683;-54
2023/09/21 08:21:04;;;;;;;3.23;1.07;;;;;;;22.52;55.54;99839.06;5037148;27;97450;-54
2023/09/21 08:23:30;;;;;;;1.47;1.37;;;;;;;22.60;55.61;99834.78;5034790;27;97119;-54
2023/09/21 08:25:56;;;;;;;1.87;1.60;;;;;;;22.68;55.56;99834.56;5036690;27;96951;-54
2023/09/21 08:28:22;;;;;;;1.37;1.27;;;;;;;22.79;55.46;99845.16;5030337;27;96799;-54
2023/09/21 08:30:47;;;;;;;1.87;1.40;;;;;;;22.94;55.15;99850.41;5038529;27;99402;-54
2023/09/21 08:33:13;;;;;;;2.53;1.13;;;;;;;23.09;54.87;99850.75;5037908;27;96776;-55
2023/09/21 08:35:40;;;;;;;3.00;1.77;;;;;;;23.26;54.97;99854.66;5035424;27;98968;-55
2023/09/21 08:38:06;;;;;;;2.00;1.10;;;;;;;23.39;54.75;99840.88;5033519;27;97158;-54
2023/09/21 08:40:34;;;;;;;1.53;1.30;;;;;;;23.49;54.31;99838.72;5032644;27;97552;-54
2023/09/21 08:43:03;;;;;;;1.50;1.40;;;;;;;23.52;54.61;99848.00;5037790;27;97145;-54
2023/09/21 08:45:29;;;;;;;1.27;1.10;;;;;;;23.52;54.35;99851.56;5037397;27;97131;-54
2023/09/21 08:47:55;;;;;;;1.30;1.20;;;;;;;23.55;54.09;99849.59;5037764;27;97153;-55
2023/09/21 08:50:21;;;;;;;3.13;1.83;;;;;;;23.58;54.54;99849.16;5036965;27;97464;-55
2023/09/21 08:52:48;;;;;;;1.33;1.23;;;;;;;23.64;54.35;99846.72;5036577;27;97247;-54
2023/09/21 08:55:13;;;;;;;1.37;1.27;;;;;;;23.71;54.35;99850.66;5035111;27;97199;-53
2023/09/21 08:57:39;;;;;;;1.70;1.43;;;;;;;23.75;54.32;99846.03;5035780;27;97019;-55
2023/09/21 09:00:06;;;;;;;1.77;0.80;;;;;;;23.82;53.98;99844.38;5032156;27;96908;-55
2023/09/21 09:02:35;;;;;;;2.20;1.47;;;;;;;23.90;53.86;99832.91;5035002;27;97748;-55
2023/09/21 09:05:08;;;;;;;2.80;1.47;;;;;;;23.96;53.47;99836.09;5034445;27;97346;-54
2023/09/21 09:07:41;;;;;;;1.70;1.10;;;;;;;24.03;53.49;99841.50;5035249;27;97175;-54
2023/09/21 09:10:12;;;;;;;1.20;1.10;;;;;;;24.10;53.74;99845.47;5034115;27;97185;-54
2023/09/21 09:12:39;;;;;;;3.10;1.50;;;;;;;24.18;53.87;99841.06;5035049;27;97891;-54
2023/09/21 09:15:05;;;;;;;1.40;1.30;;;;;;;24.28;53.41;99852.97;5034547;27;96674;-54
2023/09/21 09:17:32;;;;;;;2.17;1.50;;;;;;;24.38;53.23;99841.59;5035188;27;96563;-53
2023/09/21 09:20:01;;;;;;;1.43;1.23;;;;;;;24.50;52.96;99864.88;5033537;27;97525;-54
2023/09/21 09:22:27;;;;;;;1.90;1.50;;;;;;;24.61;52.73;99846.53;5034455;27;97188;-54
2023/09/21 09:24:53;;;;;;;2.07;1.50;;;;;;;24.64;52.77;99840.41;5035630;27;97378;-54
2023/09/21 09:27:19;;;;;;;2.43;1.40;;;;;;;24.70;52.90;99849.25;5035834;27;96874;-55
2023/09/21 09:29:56;;;;;;;1.40;1.30;;;;;;;24.80;52.16;99854.75;5033597;27;97587;-54
2023/09/21 09:32:22;;;;;;;3.97;1.30;;;;;;;24.91;52.01;99842.78;5033992;27;96975;-54
2023/09/21 09:34:47;;;;;;;6.40;1.20;;;;;;;25.07;51.91;99838.84;5035372;27;97626;-54
2023/09/21 09:37:17;;;;;;;3.33;1.43;;;;;;;25.22;51.71;99837.59;5033925;27;96810;-54
2023/09/21 09:39:47;;;;;;;1.30;1.13;;;;;;;25.28;51.43;99824.59;5031431;27;96724;-55
2023/09/21 09:42:13;;;;;;;1.20;1.10;;;;;;;25.37;51.32;99823.00;5034228;27;97098;-54
2023/09/21 09:44:46;;;;;;;1.63;1.13;;;;;;;25.47;50.72;99828.50;5033335;27;97372;-55
2023/09/21 09:47:16;;;;;;;1.70;1.60;;;;;;;25.61;50.94;99830.06;5036362;27;97096;-54
2023/09/21 09:49:45;;;;;;;1.33;1.23;;;;;;;25.77;50.93;99833.06;5032671;27;97614;-54
2023/09/21 09:52:13;;;;;;;1.20;1.03;;;;;;;25.88;50.86;99844.25;5035258;27;97619;-54
2023/09/21 09:54:40;;;;;;;0.97;0.90;;;;;;;25.98;50.23;99849.75;5034679;27;96806;-55
2023/09/21 09:57:11;;;;;;;1.40;1.30;;;;;;;26.06;49.85;99843.84;5035534;27;97196;-54
2023/09/21 09:59:37;;;;;;;1.43;1.33;;;;;;;26.14;49.81;99839.41;5032951;27;96688;-54
2023/09/21 10:02:05;;;;;;;1.43;1.10;;;;;;;26.19;49.51;99824.16;5037849;27;97417;-55
2023/09/21 10:04:34;;;;;;;1.40;1.30;;;;;;;26.15;49.32;99826.75;5036538;27;96767;-54
2023/09/21 10:06:59;;;;;;;4.90;0.90;;;;;;;26.17;49.14;99815.59;5034675;27;97035;-54
2023/09/21 10:09:27;;;;;;;1.57;0.93;;;;;;;26.25;49.14;99823.75;5034726;27;96872;-54
2023/09/21 10:11:54;;;;;;;0.90;0.90;;;;;;;26.33;48.99;99824.19;5032486;27;97147;-54
2023/09/21 10:14:19;;;;;;;2.83;1.33;;;;;;;26.36;48.81;99820.88;5035937;27;97256;-56
2023/09/21 10:16:56;;;;;;;1.40;1.30;;;;;;;26.37;47.87;99821.59;5034681;27;97379;-54
2023/09/21 10:19:29;;;;;;;1.40;1.30;;;;;;;26.35;48.36;99818.66;5035884;27;97281;-54
2023/09/21 10:21:59;;;;;;;2.47;0.80;;;;;;;26.34;48.39;99812.28;5036518;27;96811;-54
2023/09/21 10:24:29;;;;;;;1.40;1.30;;;;;;;26.40;48.69;99806.97;5034404;27;96911;-54
2023/09/21 10:26:58;;;;;;;1.63;0.90;;;;;;;26.56;48.63;99807.13;5037059;27;97184;-54
2023/09/21 10:29:36;;;;;;;3.13;1.20;;;;;;;26.65;47.23;99801.25;5036202;27;97313;-54
2023/09/21 10:32:06;;;;;;;1.67;1.10;;;;;;;26.76;48.16;99796.88;5036110;27;97100;-54
2023/09/21 10:34:32;;;;;;;2.03;1.40;;;;;;;26.89;47.90;99795.44;5033978;27;97103;-55
2023/09/21 10:37:00;;;;;;;1.00;0.80;;;;;;;27.00;47.65;99794.56;5035919;27;97177;-54
2023/09/21 10:39:28;;;;;;;1.83;1.37;;;;;;;27.06;47.75;99798.47;5037544;27;97963;-54
2023/09/21 10:42:15;;;;;;;1.10;1.00;;;;;;;27.06;46.41;99803.38;5037358;27;97906;-55
2023/09/21 10:45:07;;;;;;;1.07;1.00;;;;;;;27.07;46.83;99799.19;5036362;27;96870;-55
2023/09/21 10:47:37;;;;;;;1.23;0.90;;;;;;;27.05;47.26;99797.00;5036441;27;96985;-55
2023/09/21 10:50:06;;;;;;;1.10;1.00;;;;;;;27.06;47.16;99803.38;5035769;27;96966;-54
2023/09/21 10:52:33;;;;;;;1.40;1.03;;;;;;;27.15;47.07;99797.50;5036304;27;97142;-54
2023/09/21 10:54:59;;;;;;;1.63;0.90;;;;;;;27.27;46.81;99800.19;5034391;27;97419;-55
2023/09/21 10:57:29;;;;;;;2.83;1.27;;;;;;;27.43;46.40;99789.75;5036824;27;96891;-54
2023/09/21 10:59:55;;;;;;;1.30;1.10;;;;;;;27.52;46.83;99779.56;5038178;27;97019;-54
2023/09/21 11:02:22;;;;;;;1.97;1.20;;;;;;;27.57;46.74;99787.59;5036127;27;96659;-54
2023/09/21 11:04:48;;;;;;;1.40;1.30;;;;;;;27.58;46.48;99789.06;5035634;27;96612;-54
2023/09/21 11:07:16;;;;;;;1.20;1.10;;;;;;;27.51;46.40;99775.25;5037563;27;97417;-54
2023/09/21 11:09:43;;;;;;;1.50;1.03;;;;;;;27.46;46.70;99771.50;5037263;27;98751;-56
2023/09/21 11:12:10;;;;;;;1.33;1.00;;;;;;;27.48;46.88;99769.50;5038486;27;97170;-54
2023/09/21 11:14:36;;;;;;;2.17;1.30;;;;;;;27.51;46.65;99764.69;5039615;27;96819;-54
2023/09/21 11:17:02;;;;;;;1.97;1.20;;;;;;;27.60;46.54;99755.25;5037341;27;97744;-54
2023/09/21 11:19:27;;;;;;;1.50;1.23;;;;;;;27.66;46.65;99757.63;5038880;27;97774;-55
2023/09/21 11:21:53;;;;;;;2.10;0.73;;;;;;;27.76;46.40;99767.31;5038333;27;97516;-54
2023/09/21 11:24:19;;;;;;;1.00;0.90;;;;;;;27.89;46.08;99765.78;5036787;27;96958;-55
2023/09/21 11:26:54;;;;;;;1.20;1.10;;;;;;;28.08;45.89;99766.03;5036361;27;97459;-55
2023/09/21 11:29:20;;;;;;;1.47;1.20;;;;;;;28.28;45.74;99748.50;5034279;27;98347;-55
2023/09/21 11:31:50;;;;;;;1.53;1.30;;;;;;;28.47;45.15;99754.34;5035689;27;97441;-54
2023/09/21 11:34:16;;;;;;;1.43;1.30;;;;;;;28.48;45.11;99755.06;5035003;27;96561;-55
2023/09/21 11:36:42;;;;;;;1.30;1.17;;;;;;;28.36;45.35;99748.88;5038228;27;98140;-56